createdAt,value
2019-03-19T00:00:19.989Z,1.10
2019-03-19T00:02:50.229Z,1.10
2019-03-19T00:05:19.692Z,1.10
2019-03-19T00:07:49.119Z,1.10
2019-03-19T00:10:18.529Z,1.00
2019-03-19T00:12:48.278Z,1.00
2019-03-19T00:15:17.741Z,1.00
2019-03-19T00:17:47.205Z,1.00
2019-03-19T00:20:16.688Z,1.00
2019-03-19T00:22:46.429Z,1.00
2019-03-19T00:25:15.889Z,0.90
2019-03-19T00:27:45.329Z,0.80
2019-03-19T00:30:15.536Z,0.70
2019-03-19T00:32:45.073Z,0.70
2019-03-19T00:35:15.359Z,0.70
2019-03-19T00:37:45.168Z,0.80
2019-03-19T00:40:14.855Z,0.80
2019-03-19T00:42:44.673Z,0.70
2019-03-19T00:45:14.164Z,0.70
2019-03-19T00:47:43.528Z,0.70
2019-03-19T00:50:13.091Z,0.70
2019-03-19T00:52:42.956Z,0.70
2019-03-19T00:55:12.787Z,0.70
2019-03-19T00:57:42.544Z,0.70
2019-03-19T01:00:12.245Z,0.80
2019-03-19T01:02:41.995Z,0.70
2019-03-19T01:05:11.909Z,0.70
2019-03-19T01:07:41.345Z,0.70
2019-03-19T01:10:11.922Z,0.70
2019-03-19T01:12:41.639Z,0.60
2019-03-19T01:15:11.841Z,0.60
2019-03-19T01:17:41.934Z,0.60
2019-03-19T01:20:12.053Z,0.50
2019-03-19T01:22:41.501Z,0.40
2019-03-19T01:25:11.713Z,0.40
2019-03-19T01:27:41.077Z,0.30
2019-03-19T01:30:11.446Z,0.40
2019-03-19T01:32:41.148Z,0.40
2019-03-19T01:35:10.522Z,0.40
2019-03-19T01:37:39.988Z,0.40
2019-03-19T01:40:09.490Z,0.40
2019-03-19T01:42:39.277Z,0.30
2019-03-19T01:45:08.861Z,0.30
2019-03-19T01:47:38.564Z,0.30
2019-03-19T01:50:08.508Z,0.30
2019-03-19T01:52:37.897Z,0.20
2019-03-19T01:55:08.566Z,0.20
2019-03-19T01:57:38.080Z,0.20
2019-03-19T02:00:08.710Z,0.30
2019-03-19T02:02:38.555Z,0.30
2019-03-19T02:05:08.712Z,0.20
2019-03-19T02:07:38.065Z,0.20
2019-03-19T02:10:08.526Z,0.20
2019-03-19T02:12:37.972Z,0.20
2019-03-19T02:15:08.433Z,0.20
2019-03-19T02:17:38.112Z,0.20
2019-03-19T02:20:09.509Z,0.10
2019-03-19T02:22:39.049Z,0.00
2019-03-19T02:25:09.363Z,0.00
2019-03-19T02:27:38.731Z,0.00
2019-03-19T02:30:09.512Z,0.00
2019-03-19T02:32:38.954Z,0.00
2019-03-19T02:35:08.562Z,0.00
2019-03-19T02:37:37.995Z,0.10
2019-03-19T02:40:07.848Z,0.10
2019-03-19T02:42:37.357Z,0.00
2019-03-19T02:45:07.089Z,-0.10
2019-03-19T02:47:36.812Z,0.00
2019-03-19T02:50:06.885Z,0.10
2019-03-19T02:52:36.646Z,0.20
2019-03-19T02:55:07.028Z,0.10
2019-03-19T02:57:37.134Z,0.10
2019-03-19T03:00:07.876Z,0.00
2019-03-19T03:02:37.907Z,0.00
2019-03-19T03:05:08.602Z,0.00
2019-03-19T03:07:38.234Z,0.00
2019-03-19T03:10:08.688Z,0.00
2019-03-19T03:12:38.542Z,-0.10
2019-03-19T03:15:08.389Z,-0.10
2019-03-19T03:17:38.210Z,-0.10
2019-03-19T03:20:08.015Z,-0.20
2019-03-19T03:22:37.835Z,-0.20
2019-03-19T03:25:07.366Z,-0.30
2019-03-19T03:27:36.847Z,-0.20
2019-03-19T03:30:07.467Z,-0.20
2019-03-19T03:32:37.589Z,-0.20
2019-03-19T03:35:07.410Z,-0.20
2019-03-19T03:37:37.517Z,-0.30
2019-03-19T03:40:08.414Z,-0.20
2019-03-19T03:42:37.981Z,-0.20
2019-03-19T03:45:07.982Z,-0.20
2019-03-19T03:47:37.446Z,-0.30
2019-03-19T03:50:07.609Z,-0.30
2019-03-19T03:52:37.144Z,-0.30
2019-03-19T03:55:07.037Z,-0.30
2019-03-19T03:57:36.435Z,-0.30
2019-03-19T04:00:07.665Z,-0.20
2019-03-19T04:02:37.495Z,-0.20
2019-03-19T04:05:07.304Z,-0.20
2019-03-19T04:07:36.772Z,-0.20
2019-03-19T04:10:07.025Z,-0.30
2019-03-19T04:12:36.601Z,-0.30
2019-03-19T04:15:06.401Z,-0.20
2019-03-19T04:17:35.798Z,-0.10
2019-03-19T04:20:05.953Z,-0.20
2019-03-19T04:22:36.390Z,-0.30
2019-03-19T04:25:06.275Z,-0.30
2019-03-19T04:27:36.053Z,-0.30
2019-03-19T04:30:06.969Z,-0.20
2019-03-19T04:32:36.400Z,-0.20
2019-03-19T04:35:06.905Z,-0.20
2019-03-19T04:37:36.693Z,-0.30
2019-03-19T04:40:07.158Z,-0.40
2019-03-19T04:42:36.600Z,-0.50
2019-03-19T04:45:06.862Z,-0.50
2019-03-19T04:47:36.884Z,-0.50
2019-03-19T04:50:07.616Z,-0.40
2019-03-19T04:52:37.446Z,-0.30
2019-03-19T04:55:07.469Z,-0.40
2019-03-19T04:57:36.842Z,-0.50
2019-03-19T05:00:07.352Z,-0.40
2019-03-19T05:02:37.090Z,-0.40
2019-03-19T05:05:07.024Z,-0.40
2019-03-19T05:07:36.471Z,-0.30
2019-03-19T05:10:07.444Z,-0.30
2019-03-19T05:12:37.645Z,-0.40
2019-03-19T05:15:08.540Z,-0.40
2019-03-19T05:17:38.329Z,-0.40
2019-03-19T05:20:08.653Z,-0.40
2019-03-19T05:22:38.380Z,-0.40
2019-03-19T05:25:08.397Z,-0.30
2019-03-19T05:27:38.016Z,-0.40
2019-03-19T05:30:08.631Z,-0.40
2019-03-19T05:32:38.395Z,-0.40
2019-03-19T05:35:08.494Z,-0.30
2019-03-19T05:37:37.954Z,-0.30
2019-03-19T05:40:07.965Z,-0.20
2019-03-19T05:42:38.389Z,-0.20
2019-03-19T05:45:09.834Z,-0.10
2019-03-19T05:47:40.662Z,-0.10
2019-03-19T05:50:11.306Z,-0.20
2019-03-19T05:52:41.072Z,-0.20
2019-03-19T05:55:10.965Z,-0.10
2019-03-19T05:57:49.635Z,-0.10
2019-03-19T06:00:12.494Z,-0.10
2019-03-19T06:02:41.884Z,-0.10
2019-03-19T06:05:12.406Z,-0.10
2019-03-19T06:07:42.720Z,-0.10
2019-03-19T06:10:12.517Z,0.00
2019-03-19T06:12:42.286Z,0.00
2019-03-19T06:15:11.968Z,0.00
2019-03-19T06:17:41.472Z,0.10
2019-03-19T06:20:12.791Z,0.10
2019-03-19T06:22:43.010Z,0.10
2019-03-19T06:25:13.295Z,0.20
2019-03-19T06:27:43.181Z,0.20
2019-03-19T06:30:16.732Z,0.30
2019-03-19T06:32:46.165Z,0.40
2019-03-19T06:35:15.924Z,0.60
2019-03-19T06:37:46.880Z,0.80
2019-03-19T06:40:18.089Z,0.90
2019-03-19T06:42:47.567Z,1.00
2019-03-19T06:45:17.406Z,1.10
2019-03-19T06:47:46.785Z,1.20
2019-03-19T06:50:16.378Z,1.40
2019-03-19T06:52:45.834Z,1.60
2019-03-19T06:55:16.337Z,1.90
2019-03-19T06:57:45.785Z,2.20
2019-03-19T07:00:17.437Z,2.40
2019-03-19T07:02:47.556Z,2.60
2019-03-19T07:05:17.796Z,2.90
2019-03-19T07:07:47.213Z,3.20
2019-03-19T07:10:16.695Z,3.40
2019-03-19T07:12:46.065Z,3.60
2019-03-19T07:15:15.894Z,3.90
2019-03-19T07:17:45.272Z,4.00
2019-03-19T07:20:15.317Z,4.20
2019-03-19T07:22:44.769Z,4.30
2019-03-19T07:25:15.147Z,4.40
2019-03-19T07:27:44.601Z,4.60
2019-03-19T07:30:16.514Z,4.60
2019-03-19T07:32:45.975Z,4.60
2019-03-19T07:35:15.878Z,4.70
2019-03-19T07:37:45.621Z,4.80
2019-03-19T07:40:15.633Z,4.90
2019-03-19T07:42:45.632Z,4.80
2019-03-19T07:45:15.672Z,5.00
2019-03-19T07:47:45.712Z,5.30
2019-03-19T07:50:16.036Z,5.70
2019-03-19T07:52:45.484Z,5.80
2019-03-19T07:55:14.872Z,6.10
2019-03-19T07:57:44.366Z,6.40
2019-03-19T08:00:14.996Z,6.60
2019-03-19T08:02:44.460Z,6.90
2019-03-19T08:05:13.964Z,6.90
2019-03-19T08:07:43.804Z,6.80
2019-03-19T08:10:14.206Z,7.20
2019-03-19T08:12:43.948Z,7.20
2019-03-19T08:15:15.909Z,7.30
2019-03-19T08:17:47.207Z,7.60
2019-03-19T08:20:18.573Z,7.80
2019-03-19T08:22:48.065Z,7.80
2019-03-19T08:25:17.570Z,8.00
2019-03-19T08:27:47.041Z,8.20
2019-03-19T08:30:17.084Z,8.40
2019-03-19T08:32:46.852Z,8.30
2019-03-19T08:35:16.294Z,8.20
2019-03-19T08:37:45.808Z,8.20
2019-03-19T08:40:16.111Z,8.50
2019-03-19T08:42:45.553Z,8.60
2019-03-19T08:45:15.393Z,8.60
2019-03-19T08:47:45.623Z,8.70
2019-03-19T08:50:16.420Z,8.60
2019-03-19T08:52:46.826Z,9.00
2019-03-19T08:55:16.312Z,9.20
2019-03-19T08:57:45.720Z,9.40
2019-03-19T09:00:16.917Z,9.70
2019-03-19T09:02:47.498Z,9.90
2019-03-19T09:05:17.350Z,10.10
2019-03-19T09:07:46.912Z,10.30
2019-03-19T09:10:18.309Z,10.00
2019-03-19T09:12:48.731Z,9.90
2019-03-19T09:15:18.579Z,9.80
2019-03-19T09:17:48.389Z,9.90
2019-03-19T09:20:17.766Z,10.10
2019-03-19T09:22:47.581Z,10.40
2019-03-19T09:25:17.365Z,10.50
2019-03-19T09:27:47.669Z,10.50
2019-03-19T09:30:17.480Z,10.80
2019-03-19T09:32:46.945Z,10.70
2019-03-19T09:35:16.409Z,10.80
2019-03-19T09:37:57.304Z,11.20
2019-03-19T09:40:17.447Z,11.30
2019-03-19T09:42:47.542Z,11.20
2019-03-19T09:45:18.324Z,11.50
2019-03-19T09:47:48.748Z,11.60
2019-03-19T09:50:18.236Z,11.60
2019-03-19T09:52:47.746Z,11.90
2019-03-19T09:55:17.211Z,12.10
2019-03-19T09:57:46.666Z,12.00
2019-03-19T10:00:17.790Z,12.20
2019-03-19T10:02:47.989Z,12.20
2019-03-19T10:05:17.774Z,12.30
2019-03-19T10:07:47.329Z,12.50
2019-03-19T10:10:16.893Z,12.80
2019-03-19T10:12:46.707Z,13.00
2019-03-19T10:15:17.354Z,13.50
2019-03-19T10:17:47.469Z,13.30
2019-03-19T10:20:18.115Z,13.10
2019-03-19T10:22:48.204Z,13.70
2019-03-19T10:25:17.604Z,13.40
2019-03-19T10:27:46.964Z,13.30
2019-03-19T10:30:18.184Z,12.60
2019-03-19T10:32:49.390Z,12.40
2019-03-19T10:35:19.105Z,13.10
2019-03-19T10:37:48.560Z,13.60
2019-03-19T10:40:18.544Z,13.90
2019-03-19T10:42:48.349Z,13.20
2019-03-19T10:45:17.886Z,12.70
2019-03-19T10:47:47.579Z,12.40
2019-03-19T10:50:20.782Z,13.10
2019-03-19T10:52:50.241Z,13.00
2019-03-19T10:55:20.117Z,13.00
2019-03-19T10:57:49.572Z,12.70
2019-03-19T11:00:20.338Z,12.30
2019-03-19T11:02:49.805Z,12.30
2019-03-19T11:05:19.194Z,12.60
2019-03-19T11:07:48.661Z,13.20
2019-03-19T11:10:18.662Z,14.10
2019-03-19T11:12:48.165Z,14.50
2019-03-19T11:15:17.977Z,15.00
2019-03-19T11:17:47.392Z,15.40
2019-03-19T11:20:17.459Z,15.60
2019-03-19T11:22:47.528Z,15.60
2019-03-19T11:25:17.166Z,15.80
2019-03-19T11:27:46.859Z,16.50
2019-03-19T11:30:21.349Z,16.40
2019-03-19T11:32:50.953Z,16.40
2019-03-19T11:35:21.931Z,16.30
2019-03-19T11:37:53.465Z,16.20
2019-03-19T11:40:25.614Z,16.40
2019-03-19T11:42:55.028Z,16.50
2019-03-19T11:45:24.912Z,16.40
2019-03-19T11:47:54.471Z,16.30
2019-03-19T11:50:24.127Z,16.50
2019-03-19T11:52:53.706Z,17.00
2019-03-19T11:55:23.703Z,17.40
2019-03-19T11:57:53.586Z,17.10
2019-03-19T12:00:33.278Z,16.90
2019-03-19T12:03:12.263Z,17.20
2019-03-19T12:05:33.991Z,17.80
2019-03-19T12:08:03.382Z,17.60
2019-03-19T12:10:32.874Z,17.70
2019-03-19T12:13:03.282Z,17.80
2019-03-19T12:15:32.751Z,17.90
2019-03-19T12:18:02.560Z,18.20
2019-03-19T12:20:31.994Z,18.20
2019-03-19T12:23:01.422Z,17.40
2019-03-19T12:25:31.645Z,16.10
2019-03-19T12:28:01.125Z,16.00
2019-03-19T12:30:30.898Z,16.10
2019-03-19T12:33:00.373Z,16.50
2019-03-19T12:35:30.966Z,16.50
2019-03-19T12:38:00.596Z,17.00
2019-03-19T12:40:36.992Z,17.60
2019-03-19T12:43:01.931Z,18.20
2019-03-19T12:45:31.304Z,18.10
2019-03-19T12:48:00.705Z,17.60
2019-03-19T12:50:30.820Z,17.70
2019-03-19T12:53:00.543Z,16.80
2019-03-19T12:55:30.760Z,16.50
2019-03-19T12:58:01.390Z,15.60
2019-03-19T13:00:34.767Z,15.10
2019-03-19T13:03:02.522Z,15.20
2019-03-19T13:05:32.677Z,15.50
2019-03-19T13:08:02.154Z,16.10
2019-03-19T13:10:31.614Z,16.50
2019-03-19T13:13:01.412Z,17.30
2019-03-19T13:15:30.809Z,18.10
2019-03-19T13:18:01.162Z,18.20
2019-03-19T13:20:30.615Z,18.40
2019-03-19T13:23:00.413Z,18.70
2019-03-19T13:25:29.878Z,18.50
2019-03-19T13:27:59.330Z,18.40
2019-03-19T13:30:28.854Z,18.60
2019-03-19T13:32:58.570Z,18.60
2019-03-19T13:35:28.072Z,18.70
2019-03-19T13:37:57.537Z,18.80
2019-03-19T13:40:28.167Z,19.20
2019-03-19T13:42:57.648Z,19.20
2019-03-19T13:45:27.062Z,18.20
2019-03-19T13:47:56.910Z,17.40
2019-03-19T13:50:26.403Z,17.20
2019-03-19T13:52:56.173Z,17.00
2019-03-19T13:55:26.544Z,16.70
2019-03-19T13:57:55.950Z,16.80
2019-03-19T14:00:25.324Z,16.90
2019-03-19T14:02:54.813Z,17.50
2019-03-19T14:05:25.612Z,18.00
2019-03-19T14:07:55.040Z,17.90
2019-03-19T14:10:24.703Z,18.30
2019-03-19T14:12:56.821Z,18.40
2019-03-19T14:15:29.913Z,18.30
2019-03-19T14:18:00.322Z,18.30
2019-03-19T14:20:30.433Z,17.80
2019-03-19T14:23:00.349Z,17.30
2019-03-19T14:25:30.483Z,17.30
2019-03-19T14:28:02.294Z,17.40
2019-03-19T14:30:31.984Z,17.50
2019-03-19T14:33:04.254Z,17.70
2019-03-19T14:35:37.544Z,18.00
2019-03-19T14:38:06.337Z,17.70
2019-03-19T14:40:36.236Z,16.80
2019-03-19T14:43:05.894Z,16.50
2019-03-19T14:45:35.776Z,16.50
2019-03-19T14:48:06.182Z,16.60
2019-03-19T14:50:35.869Z,16.70
2019-03-19T14:53:05.254Z,17.10
2019-03-19T14:55:35.838Z,17.40
2019-03-19T14:58:05.597Z,17.20
2019-03-19T15:00:35.548Z,17.10
2019-03-19T15:03:05.530Z,17.00
2019-03-19T15:05:35.041Z,16.60
2019-03-19T15:08:05.005Z,16.80
2019-03-19T15:10:35.076Z,16.70
2019-03-19T15:13:05.227Z,16.20
2019-03-19T15:15:35.124Z,16.20
2019-03-19T15:18:04.957Z,16.20
2019-03-19T15:20:34.795Z,16.40
2019-03-19T15:23:04.721Z,16.10
2019-03-19T15:25:34.917Z,16.10
2019-03-19T15:28:04.584Z,15.70
2019-03-19T15:30:34.738Z,15.50
2019-03-19T15:33:05.043Z,15.50
2019-03-19T15:35:34.854Z,15.80
2019-03-19T15:38:04.770Z,15.70
2019-03-19T15:40:34.246Z,15.60
2019-03-19T15:43:04.994Z,15.60
2019-03-19T15:45:34.781Z,15.00
2019-03-19T15:48:04.205Z,14.60
2019-03-19T15:50:33.898Z,14.30
2019-03-19T15:53:03.650Z,13.80
2019-03-19T15:55:33.468Z,13.50
2019-03-19T15:58:03.277Z,13.20
2019-03-19T16:00:33.205Z,12.70
2019-03-19T16:03:02.889Z,12.50
2019-03-19T16:05:32.246Z,12.40
2019-03-19T16:08:02.409Z,12.20
2019-03-19T16:10:33.252Z,12.30
2019-03-19T16:13:02.654Z,12.40
2019-03-19T16:15:32.104Z,12.50
2019-03-19T16:18:01.500Z,12.60
2019-03-19T16:20:31.402Z,12.70
2019-03-19T16:23:01.290Z,12.60
2019-03-19T16:25:31.118Z,12.50
2019-03-19T16:28:01.557Z,12.60
2019-03-19T16:30:31.376Z,12.50
2019-03-19T16:33:00.748Z,12.40
2019-03-19T16:35:30.217Z,12.30
2019-03-19T16:37:59.659Z,12.40
2019-03-19T16:40:29.120Z,12.30
2019-03-19T16:42:59.068Z,12.20
2019-03-19T16:45:28.465Z,11.90
2019-03-19T16:47:58.289Z,11.70
2019-03-19T16:50:28.174Z,11.60
2019-03-19T16:53:00.630Z,11.30
2019-03-19T16:55:30.433Z,11.10
2019-03-19T16:58:00.209Z,10.90
2019-03-19T17:00:34.250Z,10.80
2019-03-19T17:03:03.737Z,10.70
2019-03-19T17:05:33.429Z,10.60
2019-03-19T17:08:03.199Z,10.50
2019-03-19T17:10:33.058Z,10.40
2019-03-19T17:13:02.868Z,10.30
2019-03-19T17:15:32.733Z,10.10
2019-03-19T17:18:02.583Z,10.00
2019-03-19T17:20:31.992Z,9.90
2019-03-19T17:23:01.454Z,9.70
2019-03-19T17:25:31.294Z,9.60
2019-03-19T17:28:01.447Z,9.50
2019-03-19T17:30:30.845Z,9.40
2019-03-19T17:33:00.649Z,9.30
2019-03-19T17:35:30.085Z,9.10
2019-03-19T17:37:59.496Z,9.00
2019-03-19T17:40:28.924Z,8.90
2019-03-19T17:42:58.448Z,8.80
2019-03-19T17:45:27.912Z,8.70
2019-03-19T17:47:57.374Z,8.50
2019-03-19T17:50:26.857Z,8.40
2019-03-19T17:52:56.332Z,8.30
2019-03-19T17:55:25.889Z,8.10
2019-03-19T17:57:55.338Z,7.90
2019-03-19T18:00:26.353Z,7.80
2019-03-19T18:02:57.178Z,7.70
2019-03-19T18:05:26.620Z,7.60
2019-03-19T18:07:56.165Z,7.50
2019-03-19T18:10:26.380Z,7.40
2019-03-19T18:12:55.854Z,7.30
2019-03-19T18:15:25.645Z,7.20
2019-03-19T18:17:55.012Z,7.10
2019-03-19T18:20:24.406Z,7.00
2019-03-19T18:22:53.933Z,7.00
2019-03-19T18:25:23.445Z,6.80
2019-03-19T18:27:54.729Z,6.70
2019-03-19T18:30:26.296Z,6.70
2019-03-19T18:32:55.740Z,6.60
2019-03-19T18:35:25.314Z,6.60
2019-03-19T18:37:55.465Z,6.50
2019-03-19T18:40:25.317Z,6.50
2019-03-19T18:42:55.143Z,6.40
2019-03-19T18:45:25.033Z,6.30
2019-03-19T18:47:54.928Z,6.20
2019-03-19T18:50:24.400Z,6.10
2019-03-19T18:52:54.147Z,6.00
2019-03-19T18:55:23.649Z,5.90
2019-03-19T18:57:53.054Z,5.90
2019-03-19T19:00:22.801Z,5.90
2019-03-19T19:02:52.898Z,5.80
2019-03-19T19:05:23.002Z,5.80
2019-03-19T19:07:52.807Z,5.80
2019-03-19T19:10:22.253Z,5.70
2019-03-19T19:12:51.741Z,5.60
2019-03-19T19:15:21.269Z,5.50
2019-03-19T19:17:50.750Z,5.50
2019-03-19T19:20:20.894Z,5.40
2019-03-19T19:22:50.405Z,5.50
2019-03-19T19:25:19.883Z,5.40
2019-03-19T19:27:49.669Z,5.30
2019-03-19T19:30:19.612Z,5.30
2019-03-19T19:33:00.497Z,5.20
2019-03-19T19:35:20.875Z,5.10
2019-03-19T19:37:50.345Z,5.10
2019-03-19T19:40:19.807Z,5.00
2019-03-19T19:42:49.257Z,5.00
2019-03-19T19:45:19.082Z,5.00
2019-03-19T19:47:48.566Z,5.00
2019-03-19T19:50:18.069Z,5.00
2019-03-19T19:52:49.100Z,5.00
2019-03-19T19:55:18.752Z,5.00
2019-03-19T19:57:48.558Z,4.90
2019-03-19T20:00:18.415Z,4.90
2019-03-19T20:02:47.885Z,4.90
2019-03-19T20:05:17.775Z,4.90
2019-03-19T20:07:47.225Z,4.90
2019-03-19T20:10:17.729Z,4.80
2019-03-19T20:12:47.557Z,4.80
2019-03-19T20:15:16.945Z,4.60
2019-03-19T20:17:46.408Z,4.60
2019-03-19T20:20:23.924Z,4.60
2019-03-19T20:22:53.944Z,4.60
2019-03-19T20:25:23.505Z,4.60
2019-03-19T20:27:52.944Z,4.70
2019-03-19T20:30:22.353Z,4.70
2019-03-19T20:32:51.893Z,4.70
2019-03-19T20:35:21.274Z,4.70
2019-03-19T20:37:50.713Z,4.70
2019-03-19T20:40:20.288Z,4.70
2019-03-19T20:42:50.221Z,4.80
2019-03-19T20:45:19.817Z,4.70
2019-03-19T20:47:49.224Z,4.70
2019-03-19T20:50:21.805Z,4.60
2019-03-19T20:52:51.226Z,4.50
2019-03-19T20:55:20.639Z,4.40
2019-03-19T20:57:50.278Z,4.40
2019-03-19T21:00:19.849Z,4.40
2019-03-19T21:02:49.689Z,4.30
2019-03-19T21:05:19.597Z,4.20
2019-03-19T21:07:49.132Z,4.10
2019-03-19T21:10:19.541Z,4.10
2019-03-19T21:12:49.476Z,4.10
2019-03-19T21:15:20.781Z,4.20
2019-03-19T21:17:50.578Z,4.20
2019-03-19T21:20:20.103Z,4.20
2019-03-19T21:22:49.862Z,4.20
2019-03-19T21:25:19.764Z,4.30
2019-03-19T21:27:49.897Z,4.30
2019-03-19T21:30:19.386Z,4.30
2019-03-19T21:32:48.745Z,4.20
2019-03-19T21:35:20.592Z,4.10
2019-03-19T21:37:50.524Z,4.10
2019-03-19T21:40:20.685Z,4.00
2019-03-19T21:42:50.074Z,3.90
2019-03-19T21:45:19.556Z,3.90
2019-03-19T21:47:49.289Z,3.80
2019-03-19T21:50:18.693Z,3.80
2019-03-19T21:52:48.093Z,3.80
2019-03-19T21:55:18.236Z,3.70
2019-03-19T21:57:48.262Z,3.60
2019-03-19T22:00:18.005Z,3.60
2019-03-19T22:02:47.425Z,3.60
2019-03-19T22:05:17.185Z,3.60
2019-03-19T22:07:46.594Z,3.60
2019-03-19T22:10:17.256Z,3.60
2019-03-19T22:12:49.380Z,3.60
2019-03-19T22:15:19.098Z,3.60
2019-03-19T22:17:48.961Z,3.50
2019-03-19T22:20:19.157Z,3.50
2019-03-19T22:22:48.804Z,3.50
2019-03-19T22:25:18.761Z,3.50
2019-03-19T22:27:48.469Z,3.50
2019-03-19T22:30:17.885Z,3.40
2019-03-19T22:32:47.319Z,3.40
2019-03-19T22:35:16.717Z,3.40
2019-03-19T22:37:46.505Z,3.40
2019-03-19T22:40:15.943Z,3.40
2019-03-19T22:42:45.499Z,3.40
2019-03-19T22:45:15.241Z,3.40
2019-03-19T22:47:44.749Z,3.40
2019-03-19T22:50:14.480Z,3.50
2019-03-19T22:52:44.324Z,3.50
2019-03-19T22:55:13.707Z,3.40
2019-03-19T22:57:43.409Z,3.50
2019-03-19T23:00:38.748Z,3.40
2019-03-19T23:03:08.690Z,3.50
2019-03-19T23:05:38.726Z,3.40
2019-03-19T23:08:08.178Z,3.40
2019-03-19T23:10:38.117Z,3.40
2019-03-19T23:13:07.500Z,3.40
2019-03-19T23:15:36.980Z,3.40
2019-03-19T23:18:06.540Z,3.40
2019-03-19T23:20:35.997Z,3.30
2019-03-19T23:23:05.496Z,3.30
2019-03-19T23:25:35.064Z,3.30
2019-03-19T23:28:04.650Z,3.40
2019-03-19T23:30:34.285Z,3.30
2019-03-19T23:33:03.787Z,3.40
2019-03-19T23:35:33.190Z,3.50
2019-03-19T23:38:03.033Z,3.60
2019-03-19T23:40:32.400Z,3.70
2019-03-19T23:43:01.806Z,3.70
2019-03-19T23:45:31.228Z,3.80
2019-03-19T23:48:00.639Z,3.80
2019-03-19T23:50:30.511Z,3.90
2019-03-19T23:53:00.065Z,3.90
2019-03-19T23:55:29.834Z,4.00
2019-03-19T23:57:59.645Z,4.20
